Terminal Aerodrome Forecast
Issued by NWS

Home | Current Version | Previous Version | Text Only | Print | Product List | Glossary On
Versions: 1 2 3 4 5 6 7 8 9 10 11 12 13 14 15
720
FTUS45 KFGZ 241725
TAFGCN
TAF
KGCN 241725Z 2418/2518 27009KT P6SM SCT070 BKN120
      TEMPO 2420/2424 VRB10G20KT P6SM -TSRA BKN060CB
     FM250200 VRB06KT P6SM FEW070 SCT110=

USA.gov is the U.S. government's official web portal to all federal, state and local government web resources and services.